createdAt,value
2023-02-25T00:02:11.088Z,4.26
2023-02-25T00:04:40.719Z,4.19
2023-02-25T00:07:09.822Z,4.06
2023-02-25T00:09:38.250Z,3.89
2023-02-25T00:12:07.230Z,3.74
2023-02-25T00:14:37.465Z,3.68
2023-02-25T00:17:06.252Z,3.60
2023-02-25T00:19:34.590Z,3.60
2023-02-25T00:22:02.866Z,3.55
2023-02-25T00:24:31.801Z,3.52
2023-02-25T00:27:00.513Z,3.50
2023-02-25T00:29:29.363Z,3.44
2023-02-25T00:31:59.167Z,3.31
2023-02-25T00:34:28.605Z,3.29
2023-02-25T00:36:58.283Z,3.40
2023-02-25T00:39:42.338Z,3.39
2023-02-25T00:42:10.747Z,3.42
2023-02-25T00:44:39.540Z,3.33
2023-02-25T00:47:09.048Z,3.48
2023-02-25T00:49:39.091Z,3.36
2023-02-25T00:52:09.737Z,3.38
2023-02-25T00:54:39.784Z,3.42
2023-02-25T00:57:11.403Z,3.48
2023-02-25T00:59:41.116Z,3.60
2023-02-25T01:02:11.126Z,3.59
2023-02-25T01:04:39.297Z,3.64
2023-02-25T01:07:09.020Z,3.62
2023-02-25T01:09:37.192Z,3.68
2023-02-25T01:12:08.806Z,3.63
2023-02-25T01:14:37.014Z,3.80
2023-02-25T01:17:06.380Z,3.72
2023-02-25T01:19:35.887Z,3.76
2023-02-25T01:22:05.194Z,3.72
2023-02-25T01:24:34.597Z,3.68
2023-02-25T01:27:04.581Z,3.59
2023-02-25T01:29:36.189Z,3.55
2023-02-25T01:32:05.029Z,3.49
2023-02-25T01:34:37.428Z,3.44
2023-02-25T01:37:05.647Z,3.39
2023-02-25T01:39:34.117Z,3.43
2023-02-25T01:42:05.298Z,3.44
2023-02-25T01:44:41.734Z,3.45
2023-02-25T01:47:21.284Z,3.48
2023-02-25T01:49:52.579Z,3.47
2023-02-25T01:52:25.787Z,3.58
2023-02-25T01:54:58.804Z,3.53
2023-02-25T01:57:27.879Z,3.50
2023-02-25T01:59:56.566Z,3.47
2023-02-25T02:02:27.456Z,3.44
2023-02-25T02:04:57.404Z,3.45
2023-02-25T02:07:25.687Z,3.47
2023-02-25T02:09:57.343Z,3.48
2023-02-25T02:12:29.171Z,3.51
2023-02-25T02:15:00.047Z,3.48
2023-02-25T02:17:35.929Z,3.46
2023-02-25T02:20:16.427Z,3.45
2023-02-25T02:23:12.719Z,3.43
2023-02-25T02:26:13.219Z,3.42
2023-02-25T02:29:34.626Z,3.45
2023-02-25T02:32:14.729Z,3.43
2023-02-25T02:34:50.909Z,3.44
2023-02-25T02:37:28.218Z,3.47
2023-02-25T02:40:10.566Z,3.44
2023-02-25T02:42:45.073Z,3.43
2023-02-25T02:45:21.165Z,3.40
2023-02-25T02:47:55.159Z,3.40
2023-02-25T02:50:33.977Z,3.38
2023-02-25T02:53:07.866Z,3.48
2023-02-25T02:55:41.421Z,3.55
2023-02-25T02:58:14.954Z,3.47
2023-02-25T03:00:47.723Z,3.48
2023-02-25T03:03:24.528Z,3.55
2023-02-25T03:05:55.020Z,3.48
2023-02-25T03:08:28.461Z,3.45
2023-02-25T03:10:59.534Z,3.50
2023-02-25T03:13:28.902Z,3.43
2023-02-25T03:15:59.631Z,3.44
2023-02-25T03:18:37.130Z,3.44
2023-02-25T03:21:10.203Z,3.47
2023-02-25T03:23:41.739Z,3.45
2023-02-25T03:26:15.725Z,3.48
2023-02-25T03:28:47.099Z,3.52
2023-02-25T03:31:22.292Z,3.47
2023-02-25T03:33:56.196Z,3.41
2023-02-25T03:36:28.992Z,3.47
2023-02-25T03:39:01.973Z,3.48
2023-02-25T03:41:36.710Z,3.45
2023-02-25T03:44:10.521Z,3.44
2023-02-25T03:46:43.660Z,3.41
2023-02-25T03:49:20.189Z,3.37
2023-02-25T03:51:51.058Z,3.35
2023-02-25T03:54:19.882Z,3.33
2023-02-25T03:56:54.449Z,3.34
2023-02-25T03:59:27.961Z,3.30
2023-02-25T04:01:58.528Z,3.33
2023-02-25T04:04:29.246Z,3.31
2023-02-25T04:06:57.678Z,3.35
2023-02-25T04:09:28.752Z,3.33
2023-02-25T04:11:57.222Z,3.32
2023-02-25T04:14:26.025Z,3.37
2023-02-25T04:16:56.480Z,3.36
2023-02-25T04:19:25.237Z,3.34
2023-02-25T04:21:55.118Z,3.32
2023-02-25T04:24:23.255Z,3.34
2023-02-25T04:26:57.944Z,3.37
2023-02-25T04:29:26.424Z,3.37
2023-02-25T04:31:54.922Z,3.38
2023-02-25T04:34:23.789Z,3.39
2023-02-25T04:36:54.124Z,3.38
2023-02-25T04:39:22.814Z,3.39
2023-02-25T04:41:51.425Z,3.36
2023-02-25T04:44:19.426Z,3.34
2023-02-25T04:46:51.691Z,3.30
2023-02-25T04:49:22.099Z,3.26
2023-02-25T04:51:51.805Z,3.26
2023-02-25T04:54:23.446Z,3.24
2023-02-25T04:56:51.996Z,3.24
2023-02-25T04:59:20.298Z,3.28
2023-02-25T05:01:48.719Z,3.29
2023-02-25T05:04:16.907Z,3.31
2023-02-25T05:06:46.728Z,3.32
2023-02-25T05:09:15.702Z,3.31
2023-02-25T05:11:45.363Z,3.32
2023-02-25T05:14:13.838Z,3.31
2023-02-25T05:16:42.354Z,3.31
2023-02-25T05:19:10.897Z,3.31
2023-02-25T05:21:39.275Z,3.36
2023-02-25T05:24:10.248Z,3.43
2023-02-25T05:26:39.098Z,3.43
2023-02-25T05:29:08.754Z,3.48
2023-02-25T05:31:37.222Z,3.50
2023-02-25T05:34:05.532Z,3.56
2023-02-25T05:36:34.976Z,3.55
2023-02-25T05:39:03.240Z,3.57
2023-02-25T05:41:32.028Z,3.55
2023-02-25T05:44:00.436Z,3.51
2023-02-25T05:46:30.366Z,3.53
2023-02-25T05:49:00.197Z,3.55
2023-02-25T05:51:28.590Z,3.53
2023-02-25T05:53:57.391Z,3.54
2023-02-25T05:56:30.196Z,3.52
2023-02-25T05:59:00.611Z,3.52
2023-02-25T06:01:31.558Z,3.50
2023-02-25T06:04:00.137Z,3.65
2023-02-25T06:06:31.284Z,3.63
2023-02-25T06:08:59.908Z,3.63
2023-02-25T06:11:31.169Z,3.62
2023-02-25T06:14:00.959Z,3.62
2023-02-25T06:16:31.871Z,3.63
2023-02-25T06:19:02.328Z,3.57
2023-02-25T06:21:32.349Z,3.57
2023-02-25T06:24:01.087Z,3.56
2023-02-25T06:26:29.853Z,3.53
2023-02-25T06:28:58.753Z,3.54
2023-02-25T06:31:27.493Z,3.55
2023-02-25T06:33:57.245Z,3.55
2023-02-25T06:36:25.720Z,3.54
2023-02-25T06:38:54.279Z,3.58
2023-02-25T06:41:24.248Z,3.59
2023-02-25T06:43:53.478Z,3.61
2023-02-25T06:46:24.469Z,3.64
2023-02-25T06:48:53.374Z,3.70
2023-02-25T06:51:23.448Z,3.74
2023-02-25T06:53:52.885Z,3.80
2023-02-25T06:56:22.353Z,3.82
2023-02-25T06:58:53.646Z,3.90
2023-02-25T07:01:22.653Z,3.91
2023-02-25T07:03:51.411Z,3.92
2023-02-25T07:06:20.988Z,3.94
2023-02-25T07:08:50.678Z,3.96
2023-02-25T07:11:30.230Z,3.95
2023-02-25T07:13:58.810Z,4.01
2023-02-25T07:16:27.845Z,4.09
2023-02-25T07:18:57.049Z,4.05
2023-02-25T07:21:29.342Z,4.16
2023-02-25T07:24:01.402Z,4.16
2023-02-25T07:26:31.191Z,4.11
2023-02-25T07:29:01.162Z,4.27
2023-02-25T07:31:29.605Z,4.17
2023-02-25T07:34:03.667Z,4.19
2023-02-25T07:36:33.382Z,4.25
2023-02-25T07:39:07.104Z,4.22
2023-02-25T07:41:36.894Z,4.20
2023-02-25T07:44:07.043Z,4.23
2023-02-25T07:46:35.868Z,4.23
2023-02-25T07:49:04.686Z,4.30
2023-02-25T07:51:32.902Z,4.35
2023-02-25T07:54:01.781Z,4.42
2023-02-25T07:56:32.294Z,4.47
2023-02-25T07:59:01.236Z,4.49
2023-02-25T08:01:33.866Z,4.51
2023-02-25T08:04:04.819Z,4.60
2023-02-25T08:06:37.722Z,4.65
2023-02-25T08:09:07.511Z,4.70
2023-02-25T08:11:37.441Z,4.72
2023-02-25T08:14:05.965Z,4.72
2023-02-25T08:16:34.743Z,4.78
2023-02-25T08:19:03.789Z,4.84
2023-02-25T08:21:33.499Z,4.85
2023-02-25T08:24:02.785Z,4.77
2023-02-25T08:26:31.337Z,4.87
2023-02-25T08:29:02.104Z,4.96
2023-02-25T08:31:31.100Z,4.73
2023-02-25T08:33:59.874Z,4.85
2023-02-25T08:36:30.827Z,4.78
2023-02-25T08:38:59.975Z,4.79
2023-02-25T08:41:29.844Z,4.89
2023-02-25T08:44:00.560Z,4.93
2023-02-25T08:46:33.382Z,5.03
2023-02-25T08:49:02.481Z,5.07
2023-02-25T08:51:35.006Z,5.15
2023-02-25T08:54:05.229Z,5.20
2023-02-25T08:56:35.533Z,5.22
2023-02-25T08:59:06.358Z,5.25
2023-02-25T09:01:46.090Z,5.26
2023-02-25T09:04:17.190Z,5.20
2023-02-25T09:06:47.618Z,4.99
2023-02-25T09:09:17.405Z,5.02
2023-02-25T09:11:46.919Z,5.06
2023-02-25T09:14:16.886Z,4.99
2023-02-25T09:16:48.377Z,5.05
2023-02-25T09:19:18.803Z,5.16
2023-02-25T09:21:48.695Z,5.23
2023-02-25T09:24:19.044Z,5.27
2023-02-25T09:26:48.506Z,5.25
2023-02-25T09:29:20.218Z,5.06
2023-02-25T09:31:50.585Z,5.09
2023-02-25T09:34:20.535Z,5.36
2023-02-25T09:36:48.868Z,5.44
2023-02-25T09:39:17.142Z,5.51
2023-02-25T09:41:51.898Z,5.46
2023-02-25T09:44:26.877Z,5.69
2023-02-25T09:47:02.503Z,5.74
2023-02-25T09:49:37.965Z,5.85
2023-02-25T09:52:14.679Z,5.63
2023-02-25T09:54:45.700Z,5.82
2023-02-25T09:57:19.328Z,5.99
2023-02-25T09:59:49.322Z,6.02
2023-02-25T10:02:28.006Z,5.97
2023-02-25T10:05:15.848Z,6.02
2023-02-25T10:07:58.150Z,5.82
2023-02-25T10:10:34.783Z,5.93
2023-02-25T10:13:14.444Z,5.98
2023-02-25T10:15:55.907Z,6.06
2023-02-25T10:18:51.421Z,5.77
2023-02-25T10:21:32.720Z,5.84
2023-02-25T10:24:18.183Z,5.83
2023-02-25T10:26:50.698Z,5.91
2023-02-25T10:29:27.054Z,6.08
2023-02-25T10:31:59.857Z,6.28
2023-02-25T10:34:33.193Z,6.36
2023-02-25T10:37:03.785Z,6.50
2023-02-25T10:39:32.918Z,6.43
2023-02-25T10:42:01.697Z,6.51
2023-02-25T10:44:29.846Z,6.31
2023-02-25T10:47:03.186Z,6.33
2023-02-25T10:49:38.687Z,6.29
2023-02-25T10:52:15.008Z,6.33
2023-02-25T10:54:48.307Z,6.27
2023-02-25T10:57:18.900Z,6.30
2023-02-25T10:59:49.298Z,6.22
2023-02-25T11:02:23.735Z,6.35
2023-02-25T11:04:56.670Z,6.23
2023-02-25T11:07:32.389Z,6.43
2023-02-25T11:10:13.329Z,6.41
2023-02-25T11:12:43.329Z,6.38
2023-02-25T11:15:19.708Z,6.34
2023-02-25T11:17:48.340Z,6.66
2023-02-25T11:20:24.847Z,6.77
2023-02-25T11:22:54.653Z,6.87
2023-02-25T11:25:38.328Z,6.59
2023-02-25T11:28:09.018Z,6.94
2023-02-25T11:30:40.935Z,6.70
2023-02-25T11:33:24.432Z,6.94
2023-02-25T11:36:00.080Z,6.62
2023-02-25T11:38:30.093Z,6.47
2023-02-25T11:40:58.226Z,6.64
2023-02-25T11:43:35.745Z,6.61
2023-02-25T11:46:09.181Z,6.70
2023-02-25T11:48:48.499Z,6.66
2023-02-25T11:51:37.144Z,6.64
2023-02-25T11:54:22.167Z,6.92
2023-02-25T11:56:58.499Z,6.94
2023-02-25T11:59:37.180Z,7.39
2023-02-25T12:02:25.969Z,7.89
2023-02-25T12:05:17.676Z,7.88
2023-02-25T12:08:12.811Z,8.12
2023-02-25T12:11:22.531Z,7.65
2023-02-25T12:14:11.541Z,7.45
2023-02-25T12:17:10.666Z,7.80
2023-02-25T12:20:22.036Z,8.05
2023-02-25T12:23:59.046Z,7.96
2023-02-25T12:26:38.021Z,7.88
2023-02-25T12:29:24.568Z,7.60
2023-02-25T12:32:23.427Z,8.12
2023-02-25T12:35:25.052Z,8.03
2023-02-25T12:38:20.348Z,7.99
2023-02-25T12:41:10.714Z,7.85
2023-02-25T12:43:50.286Z,7.49
2023-02-25T12:46:28.053Z,7.69
2023-02-25T12:49:23.247Z,7.73
2023-02-25T12:52:20.151Z,7.91
2023-02-25T12:55:20.582Z,7.73
2023-02-25T12:58:00.835Z,7.31
2023-02-25T13:00:56.823Z,7.07
2023-02-25T13:03:47.046Z,6.97
2023-02-25T13:06:53.201Z,6.51
2023-02-25T13:09:40.207Z,6.05
2023-02-25T13:12:26.384Z,5.48
2023-02-25T13:15:17.969Z,5.19
2023-02-25T13:18:07.176Z,5.26
2023-02-25T13:21:16.880Z,5.11
2023-02-25T13:23:53.766Z,5.14
2023-02-25T13:26:58.111Z,5.14
2023-02-25T13:29:50.034Z,5.21
2023-02-25T13:32:40.275Z,5.31
2023-02-25T13:35:22.853Z,5.41
2023-02-25T13:38:02.123Z,5.49
2023-02-25T13:40:48.446Z,5.64
2023-02-25T13:43:53.130Z,6.08
2023-02-25T13:46:37.503Z,6.31
2023-02-25T13:49:42.423Z,6.78
2023-02-25T13:52:29.966Z,6.81
2023-02-25T13:55:25.188Z,7.01
2023-02-25T13:58:24.167Z,6.69
2023-02-25T14:01:12.771Z,6.39
2023-02-25T14:04:01.421Z,6.31
2023-02-25T14:06:44.410Z,6.12
2023-02-25T14:09:29.135Z,5.86
2023-02-25T14:12:13.030Z,5.79
2023-02-25T14:15:25.590Z,5.77
2023-02-25T14:18:04.771Z,5.80
2023-02-25T14:20:44.383Z,5.92
2023-02-25T14:23:25.002Z,5.93
2023-02-25T14:26:09.253Z,5.93
2023-02-25T14:28:46.698Z,6.01
2023-02-25T14:31:23.305Z,6.03
2023-02-25T14:34:31.085Z,6.10
2023-02-25T14:37:15.123Z,6.28
2023-02-25T14:40:05.579Z,6.25
2023-02-25T14:42:47.174Z,6.07
2023-02-25T14:45:21.577Z,5.91
2023-02-25T14:47:59.391Z,5.90
2023-02-25T14:50:32.209Z,5.74
2023-02-25T14:53:31.108Z,5.70
2023-02-25T14:56:47.575Z,5.53
2023-02-25T14:59:53.510Z,5.50
2023-02-25T15:02:41.065Z,5.52
2023-02-25T15:05:30.369Z,5.41
2023-02-25T15:08:20.862Z,5.55
2023-02-25T15:11:01.879Z,5.56
2023-02-25T15:14:02.161Z,5.67
2023-02-25T15:17:10.415Z,5.90
2023-02-25T15:19:58.291Z,6.35
2023-02-25T15:22:29.604Z,6.59
2023-02-25T15:25:30.935Z,6.31
2023-02-25T15:28:02.717Z,4.95
2023-02-25T15:31:12.346Z,3.93
2023-02-25T15:33:48.407Z,2.88
2023-02-25T15:36:40.681Z,2.44
2023-02-25T15:39:11.434Z,1.96
2023-02-25T15:41:46.046Z,1.83
2023-02-25T15:44:37.939Z,1.64
2023-02-25T15:47:23.871Z,1.70
2023-02-25T15:49:56.736Z,1.57
2023-02-25T15:52:52.349Z,1.73
2023-02-25T15:55:33.639Z,1.69
2023-02-25T15:58:02.234Z,1.85
2023-02-25T16:00:55.962Z,2.02
2023-02-25T16:03:42.362Z,2.02
2023-02-25T16:06:18.958Z,2.01
2023-02-25T16:08:56.094Z,1.97
2023-02-25T16:11:34.208Z,1.93
2023-02-25T16:14:07.141Z,1.95
2023-02-25T16:16:39.701Z,1.94
2023-02-25T16:19:11.787Z,1.95
2023-02-25T16:21:46.224Z,1.89
2023-02-25T16:24:15.377Z,1.85
2023-02-25T16:26:54.174Z,1.75
2023-02-25T16:29:35.700Z,1.71
2023-02-25T16:32:11.219Z,1.67
2023-02-25T16:34:46.525Z,1.61
2023-02-25T16:37:26.593Z,1.58
2023-02-25T16:39:56.134Z,1.65
2023-02-25T16:42:27.764Z,1.71
2023-02-25T16:45:03.846Z,1.72
2023-02-25T16:47:35.119Z,1.75
2023-02-25T16:50:07.816Z,1.79
2023-02-25T16:52:41.902Z,1.67
2023-02-25T16:55:12.797Z,1.69
2023-02-25T16:57:42.738Z,1.56
2023-02-25T17:00:21.730Z,1.48
2023-02-25T17:02:52.412Z,1.44
2023-02-25T17:05:27.679Z,1.39
2023-02-25T17:08:01.182Z,1.28
2023-02-25T17:10:33.602Z,1.47
2023-02-25T17:13:03.580Z,1.33
2023-02-25T17:15:33.753Z,1.34
2023-02-25T17:18:08.658Z,1.28
2023-02-25T17:20:37.741Z,1.15
2023-02-25T17:23:11.036Z,1.29
2023-02-25T17:25:42.242Z,1.34
2023-02-25T17:28:21.811Z,1.74
2023-02-25T17:30:50.498Z,1.85
2023-02-25T17:33:22.767Z,1.94
2023-02-25T17:35:54.657Z,2.07
2023-02-25T17:38:28.931Z,1.94
2023-02-25T17:40:59.378Z,1.92
2023-02-25T17:43:35.376Z,2.00
2023-02-25T17:46:16.014Z,2.07
2023-02-25T17:48:51.085Z,2.07
2023-02-25T17:51:28.461Z,1.99
2023-02-25T17:54:01.837Z,1.90
2023-02-25T17:56:31.892Z,1.98
2023-02-25T17:59:02.859Z,2.12
2023-02-25T18:01:32.861Z,2.03
2023-02-25T18:04:06.864Z,2.03
2023-02-25T18:06:48.003Z,2.22
2023-02-25T18:09:31.721Z,2.15
2023-02-25T18:12:01.968Z,2.26
2023-02-25T18:14:36.164Z,2.26
2023-02-25T18:17:13.728Z,2.17
2023-02-25T18:19:45.957Z,2.28
2023-02-25T18:22:41.143Z,2.12
2023-02-25T18:25:31.285Z,2.01
2023-02-25T18:27:59.865Z,2.06
2023-02-25T18:30:32.017Z,2.14
2023-02-25T18:33:01.131Z,2.18
2023-02-25T18:35:32.311Z,2.19
2023-02-25T18:38:04.486Z,2.19
2023-02-25T18:40:36.830Z,2.06
2023-02-25T18:43:06.303Z,2.02
2023-02-25T18:45:36.610Z,2.09
2023-02-25T18:48:04.922Z,1.93
2023-02-25T18:50:36.802Z,1.90
2023-02-25T18:53:05.303Z,1.75
2023-02-25T18:55:35.185Z,1.62
2023-02-25T18:58:04.942Z,1.77
2023-02-25T19:00:33.392Z,1.68
2023-02-25T19:03:04.004Z,1.72
2023-02-25T19:05:32.594Z,1.60
2023-02-25T19:08:01.360Z,1.74
2023-02-25T19:10:34.441Z,1.65
2023-02-25T19:13:06.887Z,1.48
2023-02-25T19:15:35.538Z,1.50
2023-02-25T19:18:04.058Z,1.27
2023-02-25T19:20:32.442Z,1.31
2023-02-25T19:23:00.609Z,1.26
2023-02-25T19:25:30.449Z,1.37
2023-02-25T19:27:59.179Z,1.17
2023-02-25T19:30:32.082Z,1.17
2023-02-25T19:33:04.743Z,1.09
2023-02-25T19:35:35.097Z,1.21
2023-02-25T19:38:03.739Z,1.14
2023-02-25T19:40:32.387Z,1.03
2023-02-25T19:43:01.324Z,0.95
2023-02-25T19:45:30.856Z,0.89
2023-02-25T19:48:00.659Z,0.79
2023-02-25T19:50:31.544Z,0.76
2023-02-25T19:53:01.035Z,0.80
2023-02-25T19:55:29.535Z,0.72
2023-02-25T19:57:57.642Z,0.91
2023-02-25T20:00:27.429Z,0.68
2023-02-25T20:02:57.091Z,0.62
2023-02-25T20:05:26.206Z,0.62
2023-02-25T20:07:54.708Z,0.47
2023-02-25T20:10:22.865Z,0.28
2023-02-25T20:12:53.928Z,0.15
2023-02-25T20:15:24.831Z,0.06
2023-02-25T20:17:55.478Z,0.08
2023-02-25T20:20:25.452Z,0.02
2023-02-25T20:22:53.658Z,0.07
2023-02-25T20:25:22.587Z,-0.08
2023-02-25T20:27:51.392Z,-0.14
2023-02-25T20:30:19.855Z,-0.12
2023-02-25T20:32:47.962Z,-0.19
2023-02-25T20:35:20.305Z,-0.33
2023-02-25T20:38:08.734Z,-0.43
2023-02-25T20:40:37.302Z,-0.46
2023-02-25T20:43:06.281Z,-0.52
2023-02-25T20:45:35.535Z,-0.45
2023-02-25T20:48:03.860Z,-0.50
2023-02-25T20:50:32.572Z,-0.47
2023-02-25T20:53:02.877Z,-0.49
2023-02-25T20:55:31.594Z,-0.47
2023-02-25T20:58:00.014Z,-0.46
2023-02-25T21:00:28.903Z,-0.53
2023-02-25T21:02:57.101Z,-0.41
2023-02-25T21:05:25.563Z,-0.47
2023-02-25T21:07:53.852Z,-0.47
2023-02-25T21:10:24.928Z,-0.45
2023-02-25T21:12:53.715Z,-0.45
2023-02-25T21:15:23.284Z,-0.31
2023-02-25T21:17:51.947Z,-0.35
2023-02-25T21:20:20.674Z,-0.34
2023-02-25T21:22:49.740Z,-0.29
2023-02-25T21:25:18.588Z,-0.35
2023-02-25T21:27:59.695Z,-0.33
2023-02-25T21:30:28.106Z,-0.36
2023-02-25T21:32:58.195Z,-0.13
2023-02-25T21:35:26.636Z,-0.25
2023-02-25T21:37:54.869Z,-0.32
2023-02-25T21:40:23.234Z,-0.34
2023-02-25T21:42:51.921Z,-0.41
2023-02-25T21:45:21.481Z,-0.51
2023-02-25T21:47:49.884Z,-0.42
2023-02-25T21:50:19.336Z,-0.28
2023-02-25T21:52:47.726Z,-0.46
2023-02-25T21:55:16.358Z,-0.39
2023-02-25T21:57:44.764Z,-0.46
2023-02-25T22:00:14.276Z,-0.44
2023-02-25T22:02:47.209Z,-0.48
2023-02-25T22:05:16.589Z,-0.52
2023-02-25T22:07:44.931Z,-0.40
2023-02-25T22:10:15.057Z,-0.54
2023-02-25T22:12:43.607Z,-0.60
2023-02-25T22:15:12.377Z,-0.66
2023-02-25T22:17:40.654Z,-0.61
2023-02-25T22:20:12.809Z,-0.60
2023-02-25T22:22:40.916Z,-0.66
2023-02-25T22:25:10.926Z,-0.59
2023-02-25T22:27:39.137Z,-0.70
2023-02-25T22:30:08.982Z,-0.59
2023-02-25T22:32:37.563Z,-0.73
2023-02-25T22:35:07.769Z,-0.70
2023-02-25T22:37:39.746Z,-0.74
2023-02-25T22:40:09.313Z,-0.81
2023-02-25T22:42:37.652Z,-0.84
2023-02-25T22:45:07.053Z,-0.77
2023-02-25T22:47:40.212Z,-0.82
2023-02-25T22:50:09.536Z,-0.79
2023-02-25T22:52:38.920Z,-0.74
2023-02-25T22:55:08.312Z,-0.81
2023-02-25T22:57:36.644Z,-0.88
2023-02-25T23:00:16.655Z,-0.92
2023-02-25T23:02:44.898Z,-0.99
2023-02-25T23:05:13.195Z,-1.17
2023-02-25T23:07:43.164Z,-1.17
2023-02-25T23:10:12.300Z,-1.12
2023-02-25T23:12:40.792Z,-1.23
2023-02-25T23:15:10.407Z,-1.26
2023-02-25T23:17:38.940Z,-1.25
2023-02-25T23:20:10.691Z,-1.31
2023-02-25T23:22:39.180Z,-1.39
2023-02-25T23:25:10.158Z,-1.47
2023-02-25T23:27:39.503Z,-1.50
2023-02-25T23:30:10.027Z,-1.53
2023-02-25T23:32:40.965Z,-1.60
2023-02-25T23:35:12.102Z,-1.63
2023-02-25T23:37:40.718Z,-1.69
2023-02-25T23:40:11.893Z,-1.75
2023-02-25T23:42:40.983Z,-1.78
2023-02-25T23:45:11.133Z,-1.91
2023-02-25T23:47:42.713Z,-2.05
2023-02-25T23:50:15.123Z,-2.18
2023-02-25T23:52:47.299Z,-2.27
2023-02-25T23:55:17.341Z,-2.37
2023-02-25T23:57:45.902Z,-2.47
